sensor_id;sensor_type;location;lat;lon;timestamp;P1;durP1;ratioP1;P2;durP2;ratioP2
62151;SDS011;48139;47.474;19.034;2022-09-01T00:02:44;6.37;;;2.62;;
62151;SDS011;48139;47.474;19.034;2022-09-01T00:08:56;4.90;;;2.50;;
62151;SDS011;48139;47.474;19.034;2022-09-01T00:12:03;4.07;;;2.22;;
62151;SDS011;48139;47.474;19.034;2022-09-01T00:15:08;6.80;;;2.87;;
62151;SDS011;48139;47.474;19.034;2022-09-01T00:18:12;5.25;;;2.28;;
62151;SDS011;48139;47.474;19.034;2022-09-01T00:21:17;5.25;;;2.75;;
62151;SDS011;48139;47.474;19.034;2022-09-01T00:24:22;6.53;;;2.72;;
62151;SDS011;48139;47.474;19.034;2022-09-01T00:27:27;6.43;;;2.80;;
62151;SDS011;48139;47.474;19.034;2022-09-01T00:30:32;7.53;;;3.10;;
62151;SDS011;48139;47.474;19.034;2022-09-01T00:33:36;5.65;;;2.65;;
62151;SDS011;48139;47.474;19.034;2022-09-01T00:36:39;4.18;;;2.80;;
62151;SDS011;48139;47.474;19.034;2022-09-01T00:39:42;5.18;;;2.50;;
62151;SDS011;48139;47.474;19.034;2022-09-01T00:42:45;5.22;;;2.72;;
62151;SDS011;48139;47.474;19.034;2022-09-01T00:45:49;4.45;;;2.58;;
62151;SDS011;48139;47.474;19.034;2022-09-01T00:48:55;7.28;;;3.40;;
62151;SDS011;48139;47.474;19.034;2022-09-01T00:52:06;6.30;;;3.33;;
62151;SDS011;48139;47.474;19.034;2022-09-01T00:55:31;7.25;;;3.25;;
62151;SDS011;48139;47.474;19.034;2022-09-01T00:58:35;7.50;;;2.80;;
62151;SDS011;48139;47.474;19.034;2022-09-01T01:01:39;9.10;;;2.70;;
62151;SDS011;48139;47.474;19.034;2022-09-01T01:04:42;6.07;;;2.97;;
62151;SDS011;48139;47.474;19.034;2022-09-01T01:07:45;7.75;;;2.78;;
62151;SDS011;48139;47.474;19.034;2022-09-01T01:10:49;5.57;;;2.87;;
62151;SDS011;48139;47.474;19.034;2022-09-01T01:13:53;6.65;;;2.22;;
62151;SDS011;48139;47.474;19.034;2022-09-01T01:16:59;5.72;;;2.92;;
62151;SDS011;48139;47.474;19.034;2022-09-01T01:20:03;7.07;;;2.87;;
62151;SDS011;48139;47.474;19.034;2022-09-01T01:23:38;4.53;;;2.30;;
62151;SDS011;48139;47.474;19.034;2022-09-01T01:26:44;4.97;;;2.55;;
62151;SDS011;48139;47.474;19.034;2022-09-01T01:29:48;5.25;;;2.50;;
62151;SDS011;48139;47.474;19.034;2022-09-01T01:32:54;6.00;;;2.60;;
62151;SDS011;48139;47.474;19.034;2022-09-01T01:35:59;6.80;;;3.47;;
62151;SDS011;48139;47.474;19.034;2022-09-01T01:42:09;5.57;;;2.10;;
62151;SDS011;48139;47.474;19.034;2022-09-01T01:45:14;9.10;;;3.20;;
62151;SDS011;48139;47.474;19.034;2022-09-01T01:48:19;7.90;;;2.40;;
62151;SDS011;48139;47.474;19.034;2022-09-01T01:51:25;4.35;;;2.33;;
62151;SDS011;48139;47.474;19.034;2022-09-01T01:54:27;7.18;;;2.67;;
62151;SDS011;48139;47.474;19.034;2022-09-01T01:57:32;6.28;;;2.70;;
62151;SDS011;48139;47.474;19.034;2022-09-01T02:00:37;5.15;;;2.70;;
62151;SDS011;48139;47.474;19.034;2022-09-01T02:03:39;5.95;;;3.90;;
62151;SDS011;48139;47.474;19.034;2022-09-01T02:06:42;4.80;;;2.67;;
62151;SDS011;48139;47.474;19.034;2022-09-01T02:09:49;4.07;;;1.80;;
62151;SDS011;48139;47.474;19.034;2022-09-01T02:12:51;5.95;;;2.15;;
62151;SDS011;48139;47.474;19.034;2022-09-01T02:15:55;6.60;;;2.62;;
62151;SDS011;48139;47.474;19.034;2022-09-01T02:18:59;4.25;;;2.35;;
62151;SDS011;48139;47.474;19.034;2022-09-01T02:22:03;4.90;;;2.10;;
62151;SDS011;48139;47.474;19.034;2022-09-01T02:25:06;3.53;;;1.93;;
62151;SDS011;48139;47.474;19.034;2022-09-01T02:28:10;5.05;;;2.20;;
62151;SDS011;48139;47.474;19.034;2022-09-01T02:31:17;5.15;;;3.22;;
62151;SDS011;48139;47.474;19.034;2022-09-01T02:34:22;4.87;;;2.67;;
62151;SDS011;48139;47.474;19.034;2022-09-01T02:37:26;4.12;;;2.22;;
62151;SDS011;48139;47.474;19.034;2022-09-01T02:40:29;5.50;;;2.47;;
62151;SDS011;48139;47.474;19.034;2022-09-01T02:43:32;3.58;;;2.20;;
62151;SDS011;48139;47.474;19.034;2022-09-01T02:46:35;4.78;;;2.08;;
62151;SDS011;48139;47.474;19.034;2022-09-01T02:49:39;4.80;;;2.00;;
62151;SDS011;48139;47.474;19.034;2022-09-01T02:52:43;4.68;;;2.45;;
62151;SDS011;48139;47.474;19.034;2022-09-01T02:55:47;7.22;;;2.35;;
62151;SDS011;48139;47.474;19.034;2022-09-01T02:58:50;5.28;;;2.40;;
62151;SDS011;48139;47.474;19.034;2022-09-01T03:01:53;4.40;;;1.75;;
62151;SDS011;48139;47.474;19.034;2022-09-01T03:08:00;2.67;;;1.70;;
62151;SDS011;48139;47.474;19.034;2022-09-01T03:11:05;6.55;;;2.20;;
62151;SDS011;48139;47.474;19.034;2022-09-01T03:14:14;4.37;;;1.98;;
62151;SDS011;48139;47.474;19.034;2022-09-01T03:17:18;3.70;;;1.60;;
62151;SDS011;48139;47.474;19.034;2022-09-01T03:20:20;5.47;;;1.87;;
62151;SDS011;48139;47.474;19.034;2022-09-01T03:23:23;5.10;;;1.97;;
62151;SDS011;48139;47.474;19.034;2022-09-01T03:26:26;4.40;;;1.80;;
62151;SDS011;48139;47.474;19.034;2022-09-01T03:29:29;3.55;;;2.10;;
62151;SDS011;48139;47.474;19.034;2022-09-01T03:32:32;4.53;;;2.10;;
62151;SDS011;48139;47.474;19.034;2022-09-01T03:35:35;4.82;;;2.30;;
62151;SDS011;48139;47.474;19.034;2022-09-01T03:38:37;5.07;;;2.15;;
62151;SDS011;48139;47.474;19.034;2022-09-01T03:41:40;5.50;;;1.83;;
62151;SDS011;48139;47.474;19.034;2022-09-01T03:44:43;6.70;;;3.08;;
62151;SDS011;48139;47.474;19.034;2022-09-01T03:47:49;3.50;;;1.75;;
62151;SDS011;48139;47.474;19.034;2022-09-01T03:50:52;3.50;;;1.62;;
62151;SDS011;48139;47.474;19.034;2022-09-01T03:53:55;4.03;;;1.83;;
62151;SDS011;48139;47.474;19.034;2022-09-01T03:57:01;3.28;;;1.60;;
62151;SDS011;48139;47.474;19.034;2022-09-01T04:00:07;5.37;;;2.33;;
62151;SDS011;48139;47.474;19.034;2022-09-01T04:03:15;8.52;;;2.53;;
62151;SDS011;48139;47.474;19.034;2022-09-01T04:06:32;8.40;;;2.00;;
62151;SDS011;48139;47.474;19.034;2022-09-01T04:09:35;4.40;;;2.00;;
62151;SDS011;48139;47.474;19.034;2022-09-01T04:12:38;3.37;;;1.83;;
62151;SDS011;48139;47.474;19.034;2022-09-01T04:15:41;4.53;;;2.05;;
62151;SDS011;48139;47.474;19.034;2022-09-01T04:18:44;5.32;;;1.75;;
62151;SDS011;48139;47.474;19.034;2022-09-01T04:21:51;4.03;;;1.80;;
62151;SDS011;48139;47.474;19.034;2022-09-01T04:24:56;3.30;;;1.87;;
62151;SDS011;48139;47.474;19.034;2022-09-01T04:28:00;5.22;;;2.25;;
62151;SDS011;48139;47.474;19.034;2022-09-01T04:31:07;3.65;;;2.00;;
62151;SDS011;48139;47.474;19.034;2022-09-01T04:34:16;4.28;;;2.33;;
62151;SDS011;48139;47.474;19.034;2022-09-01T04:37:19;4.53;;;2.12;;
62151;SDS011;48139;47.474;19.034;2022-09-01T04:40:24;5.50;;;2.28;;
62151;SDS011;48139;47.474;19.034;2022-09-01T04:43:29;4.12;;;2.35;;
62151;SDS011;48139;47.474;19.034;2022-09-01T04:46:32;3.78;;;1.58;;
62151;SDS011;48139;47.474;19.034;2022-09-01T04:49:40;6.03;;;2.20;;
62151;SDS011;48139;47.474;19.034;2022-09-01T04:52:45;5.87;;;2.47;;
62151;SDS011;48139;47.474;19.034;2022-09-01T04:55:51;5.70;;;1.92;;
62151;SDS011;48139;47.474;19.034;2022-09-01T04:58:56;4.40;;;2.37;;
62151;SDS011;48139;47.474;19.034;2022-09-01T05:01:58;4.17;;;1.90;;
62151;SDS011;48139;47.474;19.034;2022-09-01T05:05:01;5.85;;;2.67;;
62151;SDS011;48139;47.474;19.034;2022-09-01T05:08:05;4.43;;;2.00;;
62151;SDS011;48139;47.474;19.034;2022-09-01T05:11:09;5.10;;;2.15;;
62151;SDS011;48139;47.474;19.034;2022-09-01T05:14:13;5.85;;;1.90;;
62151;SDS011;48139;47.474;19.034;2022-09-01T05:17:20;6.45;;;2.95;;
62151;SDS011;48139;47.474;19.034;2022-09-01T05:20:23;4.70;;;2.17;;
62151;SDS011;48139;47.474;19.034;2022-09-01T05:23:26;4.55;;;2.12;;
62151;SDS011;48139;47.474;19.034;2022-09-01T05:26:31;4.18;;;1.92;;
62151;SDS011;48139;47.474;19.034;2022-09-01T05:29:36;4.05;;;2.75;;
62151;SDS011;48139;47.474;19.034;2022-09-01T05:32:40;4.68;;;2.37;;
62151;SDS011;48139;47.474;19.034;2022-09-01T05:35:51;7.80;;;2.80;;
62151;SDS011;48139;47.474;19.034;2022-09-01T05:38:58;5.30;;;2.03;;
62151;SDS011;48139;47.474;19.034;2022-09-01T05:42:01;5.53;;;2.87;;
62151;SDS011;48139;47.474;19.034;2022-09-01T05:45:06;4.87;;;2.37;;
62151;SDS011;48139;47.474;19.034;2022-09-01T05:48:12;6.68;;;2.58;;
62151;SDS011;48139;47.474;19.034;2022-09-01T05:51:18;7.37;;;3.95;;
62151;SDS011;48139;47.474;19.034;2022-09-01T05:54:42;6.57;;;2.10;;
62151;SDS011;48139;47.474;19.034;2022-09-01T05:57:51;6.35;;;3.35;;
62151;SDS011;48139;47.474;19.034;2022-09-01T06:00:55;4.28;;;2.30;;
62151;SDS011;48139;47.474;19.034;2022-09-01T06:04:00;8.77;;;2.87;;
62151;SDS011;48139;47.474;19.034;2022-09-01T06:07:06;3.53;;;1.90;;
62151;SDS011;48139;47.474;19.034;2022-09-01T06:10:16;3.90;;;1.98;;
62151;SDS011;48139;47.474;19.034;2022-09-01T06:13:18;9.88;;;2.08;;
62151;SDS011;48139;47.474;19.034;2022-09-01T06:16:27;8.55;;;2.00;;
62151;SDS011;48139;47.474;19.034;2022-09-01T06:19:31;4.12;;;1.90;;
62151;SDS011;48139;47.474;19.034;2022-09-01T06:22:39;5.50;;;3.25;;
62151;SDS011;48139;47.474;19.034;2022-09-01T06:25:44;5.65;;;2.15;;
62151;SDS011;48139;47.474;19.034;2022-09-01T06:28:48;7.07;;;2.72;;
62151;SDS011;48139;47.474;19.034;2022-09-01T06:31:56;5.40;;;2.33;;
62151;SDS011;48139;47.474;19.034;2022-09-01T06:35:00;4.50;;;2.25;;
62151;SDS011;48139;47.474;19.034;2022-09-01T06:38:07;5.82;;;2.00;;
62151;SDS011;48139;47.474;19.034;2022-09-01T06:41:11;4.18;;;2.20;;
62151;SDS011;48139;47.474;19.034;2022-09-01T06:44:14;6.87;;;2.30;;
62151;SDS011;48139;47.474;19.034;2022-09-01T06:47:26;4.70;;;2.37;;
62151;SDS011;48139;47.474;19.034;2022-09-01T06:50:29;7.20;;;1.90;;
62151;SDS011;48139;47.474;19.034;2022-09-01T06:53:52;5.07;;;1.90;;
62151;SDS011;48139;47.474;19.034;2022-09-01T06:56:59;5.50;;;2.20;;
62151;SDS011;48139;47.474;19.034;2022-09-01T07:00:26;4.87;;;2.20;;
62151;SDS011;48139;47.474;19.034;2022-09-01T07:03:29;4.90;;;1.90;;
62151;SDS011;48139;47.474;19.034;2022-09-01T07:06:34;4.07;;;2.08;;
62151;SDS011;48139;47.474;19.034;2022-09-01T07:09:58;5.93;;;2.42;;
62151;SDS011;48139;47.474;19.034;2022-09-01T07:13:21;4.62;;;2.53;;
62151;SDS011;48139;47.474;19.034;2022-09-01T07:16:25;6.20;;;3.35;;
62151;SDS011;48139;47.474;19.034;2022-09-01T07:19:36;5.35;;;1.90;;
62151;SDS011;48139;47.474;19.034;2022-09-01T07:22:55;6.00;;;2.35;;
62151;SDS011;48139;47.474;19.034;2022-09-01T07:26:08;2.95;;;1.73;;
62151;SDS011;48139;47.474;19.034;2022-09-01T07:29:12;8.25;;;2.70;;
62151;SDS011;48139;47.474;19.034;2022-09-01T07:32:16;5.30;;;2.08;;
62151;SDS011;48139;47.474;19.034;2022-09-01T07:35:40;4.87;;;2.30;;
62151;SDS011;48139;47.474;19.034;2022-09-01T07:39:03;8.85;;;2.40;;
62151;SDS011;48139;47.474;19.034;2022-09-01T07:42:29;3.87;;;1.80;;
62151;SDS011;48139;47.474;19.034;2022-09-01T07:45:55;3.72;;;1.87;;
62151;SDS011;48139;47.474;19.034;2022-09-01T07:49:02;4.90;;;2.03;;
62151;SDS011;48139;47.474;19.034;2022-09-01T07:52:25;5.00;;;2.05;;
62151;SDS011;48139;47.474;19.034;2022-09-01T07:55:29;3.35;;;1.67;;
62151;SDS011;48139;47.474;19.034;2022-09-01T07:58:35;2.85;;;1.73;;
62151;SDS011;48139;47.474;19.034;2022-09-01T08:01:39;4.62;;;2.40;;
62151;SDS011;48139;47.474;19.034;2022-09-01T08:04:44;4.43;;;1.98;;
62151;SDS011;48139;47.474;19.034;2022-09-01T08:07:47;5.53;;;2.33;;
62151;SDS011;48139;47.474;19.034;2022-09-01T08:10:54;4.43;;;2.05;;
62151;SDS011;48139;47.474;19.034;2022-09-01T08:14:06;4.28;;;1.90;;
62151;SDS011;48139;47.474;19.034;2022-09-01T08:17:09;3.80;;;1.83;;
62151;SDS011;48139;47.474;19.034;2022-09-01T08:20:32;5.47;;;2.05;;
62151;SDS011;48139;47.474;19.034;2022-09-01T08:23:42;4.57;;;1.73;;
62151;SDS011;48139;47.474;19.034;2022-09-01T08:26:47;4.82;;;2.10;;
62151;SDS011;48139;47.474;19.034;2022-09-01T08:32:53;3.92;;;1.73;;
62151;SDS011;48139;47.474;19.034;2022-09-01T08:35:56;3.92;;;1.42;;
62151;SDS011;48139;47.474;19.034;2022-09-01T08:38:59;4.47;;;2.45;;
62151;SDS011;48139;47.474;19.034;2022-09-01T08:45:27;6.28;;;2.33;;
62151;SDS011;48139;47.474;19.034;2022-09-01T08:48:36;3.35;;;1.48;;
62151;SDS011;48139;47.474;19.034;2022-09-01T08:52:07;4.00;;;1.80;;
62151;SDS011;48139;47.474;19.034;2022-09-01T08:58:29;4.15;;;2.08;;
62151;SDS011;48139;47.474;19.034;2022-09-01T09:01:42;5.85;;;1.98;;
62151;SDS011;48139;47.474;19.034;2022-09-01T09:05:49;4.10;;;1.90;;
62151;SDS011;48139;47.474;19.034;2022-09-01T09:12:07;3.33;;;1.58;;
62151;SDS011;48139;47.474;19.034;2022-09-01T09:15:26;4.15;;;1.77;;
62151;SDS011;48139;47.474;19.034;2022-09-01T09:21:57;4.50;;;1.70;;
62151;SDS011;48139;47.474;19.034;2022-09-01T09:28:09;4.30;;;1.40;;
62151;SDS011;48139;47.474;19.034;2022-09-01T09:31:23;3.12;;;1.50;;
62151;SDS011;48139;47.474;19.034;2022-09-01T09:34:53;4.22;;;1.70;;
62151;SDS011;48139;47.474;19.034;2022-09-01T09:37:56;5.62;;;1.80;;
62151;SDS011;48139;47.474;19.034;2022-09-01T09:41:23;3.78;;;2.03;;
62151;SDS011;48139;47.474;19.034;2022-09-01T09:44:30;7.68;;;1.77;;
62151;SDS011;48139;47.474;19.034;2022-09-01T09:47:35;7.97;;;1.92;;
62151;SDS011;48139;47.474;19.034;2022-09-01T09:50:46;4.10;;;2.00;;
62151;SDS011;48139;47.474;19.034;2022-09-01T09:53:51;5.45;;;2.85;;
62151;SDS011;48139;47.474;19.034;2022-09-01T10:00:27;6.10;;;1.67;;
62151;SDS011;48139;47.474;19.034;2022-09-01T10:03:35;4.20;;;1.50;;
62151;SDS011;48139;47.474;19.034;2022-09-01T10:06:43;5.00;;;1.37;;
62151;SDS011;48139;47.474;19.034;2022-09-01T10:09:48;7.40;;;2.28;;
62151;SDS011;48139;47.474;19.034;2022-09-01T10:12:52;3.20;;;1.70;;
62151;SDS011;48139;47.474;19.034;2022-09-01T10:16:01;2.58;;;1.25;;
62151;SDS011;48139;47.474;19.034;2022-09-01T10:19:10;2.83;;;1.52;;
62151;SDS011;48139;47.474;19.034;2022-09-01T10:22:17;5.30;;;1.83;;
62151;SDS011;48139;47.474;19.034;2022-09-01T10:25:23;7.53;;;3.10;;
62151;SDS011;48139;47.474;19.034;2022-09-01T10:28:30;3.03;;;1.48;;
62151;SDS011;48139;47.474;19.034;2022-09-01T10:31:34;6.30;;;1.92;;
62151;SDS011;48139;47.474;19.034;2022-09-01T10:34:38;2.62;;;1.52;;
62151;SDS011;48139;47.474;19.034;2022-09-01T10:37:43;2.05;;;1.25;;
62151;SDS011;48139;47.474;19.034;2022-09-01T10:40:47;3.72;;;1.20;;
62151;SDS011;48139;47.474;19.034;2022-09-01T10:44:09;4.00;;;1.42;;
62151;SDS011;48139;47.474;19.034;2022-09-01T10:47:28;6.53;;;1.33;;
62151;SDS011;48139;47.474;19.034;2022-09-01T10:50:35;3.70;;;1.45;;
62151;SDS011;48139;47.474;19.034;2022-09-01T10:56:44;4.00;;;1.02;;
62151;SDS011;48139;47.474;19.034;2022-09-01T10:59:53;3.17;;;1.23;;
62151;SDS011;48139;47.474;19.034;2022-09-01T11:06:42;3.75;;;1.73;;
62151;SDS011;48139;47.474;19.034;2022-09-01T11:10:32;7.25;;;1.77;;
62151;SDS011;48139;47.474;19.034;2022-09-01T11:13:54;3.28;;;1.67;;
62151;SDS011;48139;47.474;19.034;2022-09-01T11:20:31;2.80;;;1.20;;
62151;SDS011;48139;47.474;19.034;2022-09-01T11:23:37;3.17;;;1.17;;
62151;SDS011;48139;47.474;19.034;2022-09-01T11:26:43;3.10;;;1.42;;
62151;SDS011;48139;47.474;19.034;2022-09-01T11:42:39;2.53;;;0.98;;
62151;SDS011;48139;47.474;19.034;2022-09-01T11:45:55;3.75;;;1.02;;
62151;SDS011;48139;47.474;19.034;2022-09-01T11:49:17;3.00;;;1.20;;
62151;SDS011;48139;47.474;19.034;2022-09-01T11:52:26;3.03;;;1.08;;
62151;SDS011;48139;47.474;19.034;2022-09-01T11:55:32;4.30;;;1.27;;
62151;SDS011;48139;47.474;19.034;2022-09-01T11:58:37;2.70;;;1.20;;
62151;SDS011;48139;47.474;19.034;2022-09-01T12:04:42;7.12;;;1.35;;
62151;SDS011;48139;47.474;19.034;2022-09-01T12:07:45;2.45;;;1.05;;
62151;SDS011;48139;47.474;19.034;2022-09-01T12:10:48;1.60;;;1.00;;
62151;SDS011;48139;47.474;19.034;2022-09-01T12:17:18;2.75;;;1.08;;
62151;SDS011;48139;47.474;19.034;2022-09-01T12:20:27;4.93;;;1.17;;
62151;SDS011;48139;47.474;19.034;2022-09-01T12:23:34;3.28;;;1.65;;
62151;SDS011;48139;47.474;19.034;2022-09-01T12:26:41;2.53;;;1.48;;
62151;SDS011;48139;47.474;19.034;2022-09-01T12:29:45;1.98;;;1.00;;
62151;SDS011;48139;47.474;19.034;2022-09-01T12:32:51;2.95;;;1.10;;
62151;SDS011;48139;47.474;19.034;2022-09-01T12:36:20;2.95;;;1.33;;
62151;SDS011;48139;47.474;19.034;2022-09-01T12:39:25;3.40;;;1.30;;
62151;SDS011;48139;47.474;19.034;2022-09-01T12:42:35;2.70;;;1.25;;
62151;SDS011;48139;47.474;19.034;2022-09-01T12:45:46;5.47;;;2.03;;
62151;SDS011;48139;47.474;19.034;2022-09-01T12:48:49;3.90;;;1.65;;
62151;SDS011;48139;47.474;19.034;2022-09-01T12:55:29;4.12;;;0.93;;
62151;SDS011;48139;47.474;19.034;2022-09-01T12:59:06;1.55;;;0.77;;
62151;SDS011;48139;47.474;19.034;2022-09-01T13:06:19;2.58;;;0.73;;
62151;SDS011;48139;47.474;19.034;2022-09-01T13:09:21;1.95;;;1.00;;
62151;SDS011;48139;47.474;19.034;2022-09-01T13:12:24;2.12;;;0.80;;
62151;SDS011;48139;47.474;19.034;2022-09-01T13:15:27;2.83;;;0.88;;
62151;SDS011;48139;47.474;19.034;2022-09-01T13:18:29;3.40;;;1.70;;
62151;SDS011;48139;47.474;19.034;2022-09-01T13:21:33;2.08;;;0.80;;
62151;SDS011;48139;47.474;19.034;2022-09-01T13:24:37;3.22;;;1.20;;
62151;SDS011;48139;47.474;19.034;2022-09-01T13:27:42;2.08;;;0.93;;
62151;SDS011;48139;47.474;19.034;2022-09-01T13:30:47;2.83;;;1.23;;
62151;SDS011;48139;47.474;19.034;2022-09-01T13:34:15;3.15;;;0.90;;
62151;SDS011;48139;47.474;19.034;2022-09-01T13:37:25;3.20;;;1.30;;
62151;SDS011;48139;47.474;19.034;2022-09-01T13:40:28;3.33;;;0.95;;
62151;SDS011;48139;47.474;19.034;2022-09-01T13:43:30;4.60;;;1.05;;
62151;SDS011;48139;47.474;19.034;2022-09-01T13:46:33;2.08;;;0.98;;
62151;SDS011;48139;47.474;19.034;2022-09-01T13:49:36;0.80;;;0.70;;
62151;SDS011;48139;47.474;19.034;2022-09-01T13:52:46;3.12;;;0.93;;
62151;SDS011;48139;47.474;19.034;2022-09-01T13:55:56;1.40;;;0.80;;
62151;SDS011;48139;47.474;19.034;2022-09-01T14:02:02;2.90;;;1.47;;
62151;SDS011;48139;47.474;19.034;2022-09-01T14:05:06;1.85;;;0.90;;
62151;SDS011;48139;47.474;19.034;2022-09-01T14:11:16;2.05;;;1.10;;
62151;SDS011;48139;47.474;19.034;2022-09-01T14:14:20;2.05;;;0.82;;
62151;SDS011;48139;47.474;19.034;2022-09-01T14:17:24;1.75;;;0.80;;
62151;SDS011;48139;47.474;19.034;2022-09-01T14:20:30;3.53;;;2.05;;
62151;SDS011;48139;47.474;19.034;2022-09-01T14:23:38;1.42;;;0.90;;
62151;SDS011;48139;47.474;19.034;2022-09-01T14:26:41;2.83;;;0.90;;
62151;SDS011;48139;47.474;19.034;2022-09-01T14:29:49;2.22;;;1.00;;
62151;SDS011;48139;47.474;19.034;2022-09-01T14:32:56;2.05;;;0.90;;
62151;SDS011;48139;47.474;19.034;2022-09-01T14:36:01;1.70;;;0.80;;
62151;SDS011;48139;47.474;19.034;2022-09-01T14:39:04;2.80;;;1.00;;
62151;SDS011;48139;47.474;19.034;2022-09-01T14:45:14;3.70;;;0.80;;
62151;SDS011;48139;47.474;19.034;2022-09-01T14:48:19;3.20;;;1.23;;
62151;SDS011;48139;47.474;19.034;2022-09-01T14:51:23;2.78;;;1.25;;
62151;SDS011;48139;47.474;19.034;2022-09-01T14:54:49;3.60;;;1.80;;
62151;SDS011;48139;47.474;19.034;2022-09-01T14:57:51;4.55;;;1.30;;
62151;SDS011;48139;47.474;19.034;2022-09-01T15:00:56;3.25;;;1.20;;
62151;SDS011;48139;47.474;19.034;2022-09-01T15:04:08;1.10;;;0.80;;
62151;SDS011;48139;47.474;19.034;2022-09-01T15:10:15;1.73;;;0.77;;
62151;SDS011;48139;47.474;19.034;2022-09-01T15:13:26;2.65;;;0.90;;
62151;SDS011;48139;47.474;19.034;2022-09-01T15:16:29;2.58;;;1.00;;
62151;SDS011;48139;47.474;19.034;2022-09-01T15:19:32;3.00;;;0.93;;
62151;SDS011;48139;47.474;19.034;2022-09-01T15:22:34;1.35;;;0.60;;
62151;SDS011;48139;47.474;19.034;2022-09-01T15:25:37;1.52;;;0.88;;
62151;SDS011;48139;47.474;19.034;2022-09-01T15:28:40;1.70;;;0.85;;
62151;SDS011;48139;47.474;19.034;2022-09-01T15:31:43;1.17;;;0.65;;
62151;SDS011;48139;47.474;19.034;2022-09-01T15:34:46;1.80;;;0.70;;
62151;SDS011;48139;47.474;19.034;2022-09-01T15:37:50;1.00;;;0.65;;
